Time;durP1;ratioP1;P1;durP2;ratioP2;P2;SDS_P1;SDS_P2;PMS_P1;PMS_P2;Temp;Humidity;BMP_temperature;BMP_pressure;BME280_temperature;BME280_humidity;BME280_pressure;Samples;Min_cycle;Max_cycle;Signal;HPM_P1;HPM_P2
2021/12/30 00:02:00;;;;;;;37.65;7.93;;;9.50;99.90;;;;;;5057115;28;20483;-81
2021/12/30 00:04:26;;;;;;;46.70;8.00;;;9.50;99.90;;;;;;5057220;28;20118;-82
2021/12/30 00:06:52;;;;;;;42.95;8.32;;;9.50;99.90;;;;;;5040115;28;20036;-82
2021/12/30 00:09:20;;;;;;;45.22;7.90;;;9.50;99.90;;;;;;5040667;28;20620;-82
2021/12/30 00:11:46;;;;;;;37.88;7.28;;;9.50;99.90;;;;;;5056012;28;20396;-81
2021/12/30 00:14:12;;;;;;;40.25;8.10;;;9.50;99.90;;;;;;5039546;28;20545;-81
2021/12/30 00:16:38;;;;;;;43.08;8.05;;;9.40;99.90;;;;;;5036664;28;20041;-82
2021/12/30 00:19:04;;;;;;;46.90;8.20;;;9.40;99.90;;;;;;5036878;28;20071;-82
2021/12/30 00:21:30;;;;;;;46.78;8.20;;;9.40;99.90;;;;;;5046040;28;20566;-82
2021/12/30 00:23:56;;;;;;;47.13;8.20;;;9.40;99.90;;;;;;5056899;28;20032;-82
2021/12/30 00:26:22;;;;;;;40.22;7.30;;;9.40;99.90;;;;;;5055554;28;20043;-81
2021/12/30 00:28:48;;;;;;;44.15;7.88;;;9.40;99.90;;;;;;5089992;28;20377;-81
2021/12/30 00:31:15;;;;;;;49.35;7.80;;;9.40;99.90;;;;;;5073135;28;20562;-81
2021/12/30 00:33:41;;;;;;;44.33;7.68;;;9.40;99.90;;;;;;5073116;28;20033;-81
2021/12/30 00:36:09;;;;;;;43.75;7.85;;;9.30;99.90;;;;;;5090020;28;20384;-81
2021/12/30 00:38:37;;;;;;;47.53;8.20;;;9.30;99.90;;;;;;5056300;28;20047;-81
2021/12/30 00:41:04;;;;;;;42.05;7.90;;;9.20;99.90;;;;;;5071967;28;20052;-81
2021/12/30 00:43:31;;;;;;;47.42;7.80;;;9.20;99.90;;;;;;5052724;28;20041;-81
2021/12/30 00:45:56;;;;;;;52.50;7.68;;;9.10;99.90;;;;;;5069359;28;20045;-81
2021/12/30 00:48:22;;;;;;;44.20;8.07;;;9.10;99.90;;;;;;5036079;28;20048;-81
2021/12/30 00:50:48;;;;;;;45.85;7.95;;;9.10;99.90;;;;;;5036323;28;20154;-81
2021/12/30 00:53:14;;;;;;;42.58;8.18;;;9.00;99.90;;;;;;5019776;28;20041;-81
2021/12/30 00:55:41;;;;;;;44.20;7.85;;;9.00;99.90;;;;;;5035016;28;20036;-81
2021/12/30 00:58:08;;;;;;;42.70;7.72;;;9.00;99.90;;;;;;5036113;28;20051;-81
2021/12/30 01:00:36;;;;;;;43.10;7.95;;;9.00;99.90;;;;;;5036081;28;20449;-81
2021/12/30 01:03:03;;;;;;;45.13;8.10;;;9.00;99.90;;;;;;5052892;28;20051;-81
2021/12/30 01:05:28;;;;;;;45.78;7.20;;;8.90;99.90;;;;;;5052338;28;20048;-82
2021/12/30 01:07:54;;;;;;;46.10;7.75;;;8.90;99.90;;;;;;5035006;28;20041;-82
2021/12/30 01:10:23;;;;;;;46.38;7.60;;;8.90;99.90;;;;;;5035194;28;20079;-81
2021/12/30 01:12:50;;;;;;;46.83;7.75;;;8.90;99.90;;;;;;5052672;28;20036;-82
2021/12/30 01:15:19;;;;;;;46.22;7.15;;;8.90;99.90;;;;;;5035534;28;20080;-81
2021/12/30 01:20:16;;;;;;;47.33;7.85;;;8.90;99.90;;;;;;5052231;28;20572;-82
2021/12/30 01:22:41;;;;;;;42.15;6.60;;;8.80;99.90;;;;;;5069280;28;20420;-82
2021/12/30 01:25:08;;;;;;;45.90;7.40;;;8.90;99.90;;;;;;5035262;28;20048;-82
2021/12/30 01:27:39;;;;;;;44.80;7.68;;;8.80;99.90;;;;;;5035315;28;20052;-82
2021/12/30 01:30:09;;;;;;;41.00;7.77;;;8.80;99.90;;;;;;5051958;28;20053;-82
2021/12/30 01:32:35;;;;;;;36.20;6.38;;;8.80;99.90;;;;;;5035333;28;20276;-82
2021/12/30 01:35:03;;;;;;;41.80;7.75;;;8.70;99.90;;;;;;5035455;28;20037;-82
2021/12/30 01:37:29;;;;;;;38.05;7.40;;;8.70;99.90;;;;;;5035667;28;20044;-81
2021/12/30 01:39:55;;;;;;;43.47;7.07;;;8.70;99.90;;;;;;5066766;28;20131;-81
2021/12/30 01:42:21;;;;;;;40.65;7.18;;;8.70;99.90;;;;;;5037812;28;20077;-81
2021/12/30 01:44:48;;;;;;;42.33;7.32;;;8.60;99.90;;;;;;5038777;28;20044;-81
2021/12/30 01:47:14;;;;;;;42.17;6.88;;;8.60;99.90;;;;;;5052198;28;20049;-81
2021/12/30 01:49:39;;;;;;;33.45;6.90;;;8.60;99.90;;;;;;5035108;28;20115;-81
2021/12/30 01:52:05;;;;;;;43.15;7.95;;;8.60;99.90;;;;;;5034986;28;20488;-81
2021/12/30 01:54:32;;;;;;;45.55;8.00;;;8.60;99.90;;;;;;5018762;28;20480;-81
2021/12/30 01:57:04;;;;;;;40.30;6.95;;;8.60;99.90;;;;;;5018029;28;20045;-81
2021/12/30 01:59:30;;;;;;;47.65;8.00;;;8.60;99.90;;;;;;5035403;28;20374;-81
2021/12/30 02:01:57;;;;;;;49.13;7.85;;;8.50;99.90;;;;;;5018511;28;20047;-81
2021/12/30 02:04:30;;;;;;;46.53;7.18;;;8.50;99.90;;;;;;5051741;28;20080;-81
2021/12/30 02:06:57;;;;;;;43.45;7.70;;;8.50;99.90;;;;;;5051345;28;20041;-81
2021/12/30 02:09:24;;;;;;;46.72;7.40;;;8.50;99.90;;;;;;5035102;28;20033;-81
2021/12/30 02:11:50;;;;;;;41.22;7.55;;;8.50;99.90;;;;;;5034288;28;20554;-81
2021/12/30 02:14:16;;;;;;;45.75;8.05;;;8.50;99.90;;;;;;5051636;28;20098;-81
2021/12/30 02:16:43;;;;;;;50.67;8.60;;;8.60;99.90;;;;;;5051371;28;20072;-81
2021/12/30 02:19:09;;;;;;;55.25;8.98;;;8.50;99.90;;;;;;5018655;28;20037;-81
2021/12/30 02:21:35;;;;;;;46.30;8.55;;;8.60;99.90;;;;;;5055274;28;20090;-81
2021/12/30 02:24:02;;;;;;;54.63;9.95;;;8.60;99.90;;;;;;5038946;28;20125;-81
2021/12/30 02:26:28;;;;;;;57.22;10.57;;;8.60;99.90;;;;;;5054929;28;20369;-81
2021/12/30 02:28:53;;;;;;;55.38;10.68;;;8.60;99.90;;;;;;5006012;28;20052;-81
2021/12/30 02:31:22;;;;;;;52.38;10.70;;;8.60;99.90;;;;;;5038892;28;20618;-81
2021/12/30 02:33:49;;;;;;;57.78;11.52;;;8.70;99.90;;;;;;5055762;28;20547;-81
2021/12/30 02:36:17;;;;;;;50.00;11.98;;;8.70;99.90;;;;;;5038689;28;20455;-81
2021/12/30 02:38:45;;;;;;;59.10;12.82;;;8.70;99.90;;;;;;5038707;28;20451;-81
2021/12/30 02:41:16;;;;;;;63.13;14.65;;;8.80;99.90;;;;;;5005377;28;20041;-81
2021/12/30 02:43:42;;;;;;;60.67;15.70;;;8.90;99.90;;;;;;5038640;28;20053;-81
2021/12/30 02:46:08;;;;;;;59.38;17.10;;;8.90;99.90;;;;;;5054910;28;20077;-81
2021/12/30 02:48:37;;;;;;;67.32;17.52;;;8.90;99.90;;;;;;5021923;28;20512;-81
2021/12/30 02:51:06;;;;;;;64.25;17.65;;;9.00;99.90;;;;;;5055114;28;20522;-81
2021/12/30 02:53:33;;;;;;;66.30;19.63;;;9.00;99.90;;;;;;5038714;28;20048;-81
2021/12/30 02:55:59;;;;;;;65.10;19.80;;;9.10;99.90;;;;;;5037471;28;20032;-82
2021/12/30 02:58:26;;;;;;;69.00;20.95;;;9.20;99.90;;;;;;5038451;28;20037;-82
2021/12/30 03:01:13;;;;;;;78.78;21.00;;;9.20;99.90;;;;;;5038479;28;20077;-82
2021/12/30 03:03:40;;;;;;;69.45;22.20;;;9.30;99.90;;;;;;5055078;28;20391;-82
2021/12/30 03:06:09;;;;;;;75.72;22.60;;;9.30;99.90;;;;;;5054494;28;20049;-82
2021/12/30 03:08:36;;;;;;;78.22;24.05;;;9.30;99.90;;;;;;5054713;28;20586;-82
2021/12/30 03:11:03;;;;;;;77.50;24.30;;;9.40;99.90;;;;;;5037080;28;20041;-82
2021/12/30 03:13:31;;;;;;;82.70;25.38;;;9.40;99.90;;;;;;5054568;28;20048;-82
2021/12/30 03:16:04;;;;;;;77.25;25.30;;;9.40;99.90;;;;;;5038062;28;20103;-82
2021/12/30 03:18:31;;;;;;;84.78;25.70;;;9.40;99.90;;;;;;5038186;28;20427;-82
2021/12/30 03:20:57;;;;;;;82.72;26.38;;;9.40;99.90;;;;;;5037705;28;20052;-82
2021/12/30 03:23:23;;;;;;;78.93;26.98;;;9.50;99.90;;;;;;5037873;28;20063;-82
2021/12/30 03:25:49;;;;;;;81.60;26.52;;;9.50;99.90;;;;;;5036837;28;20041;-82
2021/12/30 03:28:15;;;;;;;78.22;25.17;;;9.60;99.90;;;;;;5037761;28;20545;-82
2021/12/30 03:30:41;;;;;;;79.70;26.60;;;9.60;99.90;;;;;;5037432;28;20040;-82
2021/12/30 03:33:07;;;;;;;80.55;26.15;;;9.60;99.90;;;;;;5053940;28;20170;-82
2021/12/30 03:35:32;;;;;;;71.15;25.85;;;9.60;99.90;;;;;;5037392;28;20116;-81
2021/12/30 03:37:58;;;;;;;77.65;25.88;;;9.70;99.90;;;;;;5037670;28;20044;-81
2021/12/30 03:40:24;;;;;;;72.53;25.33;;;9.70;99.90;;;;;;5036535;28;20037;-81
2021/12/30 03:42:51;;;;;;;81.75;25.65;;;9.70;99.90;;;;;;5071176;28;20515;-81
2021/12/30 03:45:17;;;;;;;71.07;25.45;;;9.70;99.90;;;;;;5037250;28;20570;-81
2021/12/30 03:47:47;;;;;;;77.55;25.10;;;9.70;99.90;;;;;;5037611;28;20080;-81
2021/12/30 03:50:21;;;;;;;78.28;25.48;;;9.80;99.90;;;;;;5037047;28;20131;-81
2021/12/30 03:52:49;;;;;;;79.05;26.30;;;9.80;99.90;;;;;;5037346;28;20090;-81
2021/12/30 03:55:16;;;;;;;75.35;25.73;;;9.80;99.90;;;;;;5036544;28;20103;-81
2021/12/30 03:57:42;;;;;;;78.32;26.80;;;9.80;99.90;;;;;;5037290;28;20041;-81
2021/12/30 04:00:10;;;;;;;71.55;24.50;;;9.80;99.90;;;;;;5054238;28;20043;-81
2021/12/30 04:02:36;;;;;;;73.57;26.13;;;9.90;99.90;;;;;;5053516;28;20033;-82
2021/12/30 04:05:02;;;;;;;76.82;25.20;;;9.90;99.90;;;;;;5004161;28;20485;-82
2021/12/30 04:07:27;;;;;;;73.38;25.30;;;9.90;99.90;;;;;;5036732;28;20040;-82
2021/12/30 04:09:53;;;;;;;74.65;25.52;;;10.00;99.90;;;;;;5037241;28;20047;-82
2021/12/30 04:12:19;;;;;;;84.95;24.67;;;10.00;99.90;;;;;;5052728;28;20139;-82
2021/12/30 04:14:45;;;;;;;70.57;24.55;;;10.00;99.90;;;;;;5020494;28;20044;-82
2021/12/30 04:17:10;;;;;;;83.53;25.77;;;10.00;99.90;;;;;;5053154;28;20045;-82
2021/12/30 04:19:36;;;;;;;73.10;25.65;;;10.00;99.90;;;;;;5004050;28;20074;-82
2021/12/30 04:22:03;;;;;;;75.43;25.02;;;10.00;99.90;;;;;;5036454;28;20503;-82
2021/12/30 04:24:29;;;;;;;72.80;23.90;;;10.00;99.90;;;;;;5036770;28;20041;-82
2021/12/30 04:26:54;;;;;;;84.18;25.15;;;10.00;99.90;;;;;;5035983;28;20484;-82
2021/12/30 04:29:21;;;;;;;71.53;24.15;;;10.10;99.90;;;;;;5036900;28;20086;-82
2021/12/30 04:31:47;;;;;;;75.88;24.17;;;10.10;99.90;;;;;;5020227;28;20397;-82
2021/12/30 04:34:13;;;;;;;74.35;23.70;;;10.10;99.90;;;;;;5053144;28;20041;-82
2021/12/30 04:36:40;;;;;;;75.50;23.73;;;10.10;99.90;;;;;;5036342;28;20033;-82
2021/12/30 04:39:06;;;;;;;76.75;23.23;;;10.10;99.90;;;;;;5069987;28;20029;-82
2021/12/30 04:41:32;;;;;;;75.57;23.30;;;10.10;99.90;;;;;;5052125;28;20040;-82
2021/12/30 04:43:58;;;;;;;81.43;23.02;;;10.10;99.90;;;;;;5036405;28;20144;-82
2021/12/30 04:46:24;;;;;;;71.45;22.38;;;10.10;99.90;;;;;;5019649;28;20041;-82
2021/12/30 04:48:50;;;;;;;72.68;23.00;;;10.10;99.90;;;;;;5036190;28;20132;-82
2021/12/30 04:51:17;;;;;;;75.07;22.67;;;10.10;99.90;;;;;;5052690;28;20041;-82
2021/12/30 04:53:44;;;;;;;78.68;23.75;;;10.20;99.90;;;;;;5019740;28;20037;-82
2021/12/30 04:56:10;;;;;;;72.13;22.80;;;10.20;99.90;;;;;;5065628;28;20036;-82
2021/12/30 04:58:36;;;;;;;77.20;22.48;;;10.20;99.90;;;;;;5053011;28;20488;-82
2021/12/30 05:01:02;;;;;;;69.90;21.92;;;10.20;99.90;;;;;;5035897;28;20052;-82
2021/12/30 05:03:28;;;;;;;71.50;23.52;;;10.20;99.90;;;;;;5052906;28;20555;-82
2021/12/30 05:05:55;;;;;;;88.35;23.58;;;10.10;99.90;;;;;;5035807;28;20151;-82
2021/12/30 05:08:24;;;;;;;96.80;25.67;;;10.20;99.90;;;;;;5036023;28;20511;-82
2021/12/30 05:10:50;;;;;;;89.57;25.92;;;10.20;99.90;;;;;;5034952;28;20040;-82
2021/12/30 05:13:17;;;;;;;97.85;28.52;;;10.10;99.90;;;;;;5019596;28;20033;-82
2021/12/30 05:15:44;;;;;;;108.15;28.38;;;10.20;99.90;;;;;;5019479;28;20444;-82
2021/12/30 05:18:12;;;;;;;90.25;28.58;;;10.20;99.90;;;;;;5036055;28;20550;-82
2021/12/30 05:20:39;;;;;;;108.88;32.45;;;10.30;99.90;;;;;;5035352;28;20047;-82
2021/12/30 05:23:07;;;;;;;101.82;31.10;;;10.30;99.90;;;;;;5035908;28;20047;-82
2021/12/30 05:25:33;;;;;;;126.05;35.25;;;10.20;99.90;;;;;;5034851;28;20475;-82
2021/12/30 05:27:59;;;;;;;158.65;39.08;;;10.30;99.90;;;;;;5035623;28;20041;-82
2021/12/30 05:30:26;;;;;;;112.07;34.92;;;10.30;99.90;;;;;;5019169;28;20111;-82
2021/12/30 05:32:55;;;;;;;117.88;34.78;;;10.20;99.90;;;;;;5052137;28;20095;-82
2021/12/30 05:35:21;;;;;;;100.32;33.45;;;10.30;99.90;;;;;;5051740;28;20041;-82
2021/12/30 05:37:48;;;;;;;83.70;30.95;;;10.20;99.90;;;;;;5019484;28;20037;-82
2021/12/30 05:40:17;;;;;;;106.82;34.28;;;10.30;99.90;;;;;;5018307;28;20052;-82
2021/12/30 05:42:44;;;;;;;93.10;31.83;;;10.30;99.90;;;;;;5052304;28;20062;-82
2021/12/30 05:45:10;;;;;;;85.43;32.45;;;10.30;99.90;;;;;;5018904;28;20037;-82
2021/12/30 05:47:37;;;;;;;73.53;30.13;;;10.30;99.90;;;;;;5051835;28;20070;-82
2021/12/30 05:50:06;;;;;;;87.25;31.08;;;10.30;99.90;;;;;;5035044;28;20441;-82
2021/12/30 05:52:32;;;;;;;100.05;32.35;;;10.40;99.90;;;;;;5035468;28;20488;-82
2021/12/30 05:54:57;;;;;;;82.00;30.15;;;10.40;99.90;;;;;;5051366;28;20037;-82
2021/12/30 05:57:23;;;;;;;74.57;27.80;;;10.40;99.90;;;;;;5034374;28;20044;-82
2021/12/30 05:59:49;;;;;;;95.57;30.65;;;10.40;99.90;;;;;;5035350;28;20082;-82
2021/12/30 06:02:15;;;;;;;75.28;27.38;;;10.50;99.90;;;;;;5034949;28;20507;-82
2021/12/30 06:04:41;;;;;;;79.43;26.58;;;10.40;99.90;;;;;;5035213;28;20076;-82
2021/12/30 06:07:09;;;;;;;66.45;24.98;;;10.50;99.90;;;;;;5034758;28;20071;-82
2021/12/30 06:09:35;;;;;;;73.10;25.90;;;10.50;99.90;;;;;;5051714;28;20036;-81
2021/12/30 06:12:00;;;;;;;73.35;25.83;;;10.50;99.90;;;;;;5034062;28;20049;-81
2021/12/30 06:14:26;;;;;;;78.03;26.30;;;10.50;99.90;;;;;;5051686;28;20033;-81
2021/12/30 06:16:52;;;;;;;77.85;26.35;;;10.60;99.90;;;;;;5018471;28;20037;-81
2021/12/30 06:19:18;;;;;;;82.00;27.17;;;10.50;99.90;;;;;;5035273;28;20037;-81
2021/12/30 06:21:44;;;;;;;83.53;27.00;;;10.60;99.90;;;;;;5062607;28;20033;-81
2021/12/30 06:24:10;;;;;;;85.50;27.08;;;10.60;99.90;;;;;;5038483;28;20401;-81
2021/12/30 06:26:36;;;;;;;91.18;27.50;;;10.70;99.90;;;;;;5037379;28;20048;-81
2021/12/30 06:29:02;;;;;;;100.75;28.20;;;10.70;99.90;;;;;;5038390;28;20447;-81
2021/12/30 06:31:28;;;;;;;107.00;30.48;;;10.80;99.90;;;;;;5054540;28;20042;-81
2021/12/30 06:33:53;;;;;;;92.60;27.60;;;10.80;99.90;;;;;;5071760;28;20492;-81
2021/12/30 06:36:21;;;;;;;128.70;32.35;;;10.80;99.90;;;;;;5037912;28;20039;-81
2021/12/30 06:38:48;;;;;;;101.90;30.75;;;10.90;99.90;;;;;;5022306;28;20044;-81
2021/12/30 06:41:14;;;;;;;124.50;31.92;;;11.00;99.90;;;;;;5053688;28;20041;-81
2021/12/30 06:43:41;;;;;;;109.72;31.20;;;11.00;99.90;;;;;;5054204;28;20052;-82
2021/12/30 06:46:09;;;;;;;122.60;32.72;;;11.00;99.90;;;;;;5050549;28;20044;-81
2021/12/30 06:48:35;;;;;;;118.78;31.50;;;11.00;99.90;;;;;;5037726;28;20515;-82
2021/12/30 06:51:03;;;;;;;124.35;32.55;;;11.00;99.90;;;;;;5038863;28;20084;-81
2021/12/30 06:53:29;;;;;;;123.15;32.78;;;11.10;99.90;;;;;;5035877;28;20041;-81
2021/12/30 06:55:55;;;;;;;131.98;33.30;;;11.10;99.90;;;;;;5027653;28;20063;-81
2021/12/30 06:58:21;;;;;;;135.10;34.63;;;11.10;99.90;;;;;;5022979;28;20041;-81
2021/12/30 07:00:48;;;;;;;131.30;35.10;;;11.10;99.90;;;;;;5034351;28;20407;-81
2021/12/30 07:03:14;;;;;;;147.65;35.10;;;11.10;99.90;;;;;;5034858;28;20564;-81
2021/12/30 07:05:40;;;;;;;128.30;34.55;;;11.20;99.90;;;;;;5034375;28;20119;-81
2021/12/30 07:08:06;;;;;;;105.85;31.40;;;11.20;99.90;;;;;;5037531;28;20091;-81
2021/12/30 07:10:32;;;;;;;128.13;32.65;;;11.20;99.90;;;;;;5036935;28;20041;-81
2021/12/30 07:12:57;;;;;;;105.85;30.38;;;11.20;99.90;;;;;;5054950;28;20049;-81
2021/12/30 07:15:23;;;;;;;98.35;28.65;;;11.20;99.90;;;;;;5048214;28;20052;-81
2021/12/30 07:17:49;;;;;;;99.00;28.65;;;11.30;99.90;;;;;;5054717;28;20048;-81
2021/12/30 07:20:15;;;;;;;91.32;27.67;;;11.30;99.90;;;;;;5054565;28;20036;-81
2021/12/30 07:22:41;;;;;;;96.07;28.48;;;11.30;99.90;;;;;;5067102;28;20077;-81
2021/12/30 07:25:08;;;;;;;88.18;26.67;;;11.40;99.90;;;;;;5040092;28;20036;-82
2021/12/30 07:27:34;;;;;;;90.55;27.75;;;11.40;99.90;;;;;;5057095;28;20036;-82
2021/12/30 07:30:01;;;;;;;86.90;25.75;;;11.50;99.90;;;;;;5060595;28;20492;-82
2021/12/30 07:32:27;;;;;;;72.20;25.25;;;11.50;99.90;;;;;;5052496;28;20036;-82
2021/12/30 07:34:53;;;;;;;86.35;26.77;;;11.50;99.90;;;;;;5057148;28;20091;-82
2021/12/30 07:37:19;;;;;;;79.75;25.27;;;11.50;99.90;;;;;;5073768;28;20389;-82
2021/12/30 07:39:45;;;;;;;67.70;25.42;;;11.50;99.90;;;;;;5022275;28;20103;-81
2021/12/30 07:42:12;;;;;;;72.45;24.67;;;11.50;99.90;;;;;;5037542;28;20044;-81
2021/12/30 07:44:38;;;;;;;65.97;23.50;;;11.50;99.90;;;;;;5038966;28;20048;-82
2021/12/30 07:47:08;;;;;;;69.90;22.65;;;11.50;99.90;;;;;;5072010;28;20040;-81
2021/12/30 07:49:36;;;;;;;58.40;21.10;;;11.50;99.90;;;;;;5072628;28;20060;-81
2021/12/30 07:52:06;;;;;;;63.42;21.40;;;11.50;99.90;;;;;;5073016;28;20071;-81
2021/12/30 07:54:34;;;;;;;55.20;19.50;;;11.50;99.90;;;;;;5056320;28;20066;-81
2021/12/30 07:57:00;;;;;;;52.80;19.35;;;11.50;99.90;;;;;;5068546;28;20504;-81
2021/12/30 07:59:26;;;;;;;43.20;17.52;;;11.50;99.90;;;;;;5050290;28;20396;-83
2021/12/30 08:01:52;;;;;;;41.75;16.60;;;11.60;99.90;;;;;;5073028;28;20033;-82
2021/12/30 08:04:18;;;;;;;41.10;15.75;;;11.60;99.90;;;;;;5039620;28;20040;-81
2021/12/30 08:06:44;;;;;;;38.97;15.35;;;11.60;99.90;;;;;;5055565;28;20040;-81
2021/12/30 08:09:10;;;;;;;45.63;16.77;;;11.60;99.90;;;;;;5038092;28;20033;-81
2021/12/30 08:11:35;;;;;;;44.40;16.13;;;11.60;99.90;;;;;;5038159;28;20033;-81
2021/12/30 08:14:01;;;;;;;34.28;13.40;;;11.60;99.90;;;;;;5039508;28;20434;-81
2021/12/30 08:16:28;;;;;;;37.17;14.57;;;11.70;99.90;;;;;;5052989;28;20481;-81
2021/12/30 08:18:53;;;;;;;36.10;14.57;;;11.70;99.90;;;;;;5053059;28;20131;-81
2021/12/30 08:21:20;;;;;;;34.67;13.77;;;11.70;99.90;;;;;;5050939;28;20127;-82
2021/12/30 08:23:47;;;;;;;26.67;12.18;;;11.70;99.90;;;;;;5072175;28;20048;-82
2021/12/30 08:26:13;;;;;;;31.67;13.18;;;11.70;99.90;;;;;;5070952;28;20040;-82
2021/12/30 08:28:39;;;;;;;26.17;12.73;;;11.70;99.90;;;;;;5054419;28;20052;-82
2021/12/30 08:31:04;;;;;;;25.30;12.35;;;11.70;99.90;;;;;;5053050;28;20033;-82
2021/12/30 08:33:30;;;;;;;25.25;11.60;;;11.70;99.90;;;;;;5020711;28;20037;-82
2021/12/30 08:35:56;;;;;;;22.05;10.57;;;11.70;99.90;;;;;;5035878;28;20033;-81
2021/12/30 08:38:22;;;;;;;20.90;10.32;;;11.70;99.90;;;;;;5052296;28;20045;-81
2021/12/30 08:40:48;;;;;;;16.52;8.68;;;11.80;99.90;;;;;;5037919;28;20045;-83
2021/12/30 08:43:16;;;;;;;17.05;9.10;;;11.80;99.90;;;;;;5054711;28;20044;-82
2021/12/30 08:45:42;;;;;;;15.95;8.73;;;11.80;99.90;;;;;;5053604;28;20126;-82
2021/12/30 08:48:08;;;;;;;15.88;9.02;;;11.80;99.90;;;;;;5038577;28;20036;-82
2021/12/30 08:50:34;;;;;;;18.35;9.50;;;11.90;99.90;;;;;;5070518;28;20059;-83
2021/12/30 08:53:00;;;;;;;19.23;9.75;;;11.90;99.90;;;;;;5051850;28;20416;-82
2021/12/30 08:55:26;;;;;;;17.33;9.85;;;11.90;99.90;;;;;;5053192;28;20048;-82
2021/12/30 08:57:52;;;;;;;18.52;10.18;;;11.90;99.90;;;;;;5047421;28;20120;-82
2021/12/30 09:00:23;;;;;;;19.23;10.25;;;12.10;99.90;;;;;;5070079;28;20411;-82
2021/12/30 09:02:50;;;;;;;19.60;10.65;;;12.10;99.90;;;;;;5053950;28;20041;-82
2021/12/30 09:05:17;;;;;;;19.20;10.88;;;12.10;99.90;;;;;;5054654;28;20051;-82
2021/12/30 09:07:43;;;;;;;20.00;11.73;;;12.20;99.90;;;;;;5036940;28;20115;-82
2021/12/30 09:10:10;;;;;;;22.33;12.90;;;12.20;99.90;;;;;;5070890;28;20392;-83
2021/12/30 09:12:38;;;;;;;20.27;13.48;;;12.20;99.90;;;;;;5055028;28;20515;-82
2021/12/30 09:15:05;;;;;;;21.75;14.55;;;12.20;99.90;;;;;;5052097;28;20037;-83
2021/12/30 09:17:32;;;;;;;25.48;15.00;;;12.30;99.90;;;;;;5050719;28;20121;-82
2021/12/30 09:19:58;;;;;;;24.65;15.43;;;12.30;99.90;;;;;;5051173;28;20033;-82
2021/12/30 09:22:23;;;;;;;24.58;15.05;;;12.30;99.90;;;;;;5037465;28;20040;-82
2021/12/30 09:24:49;;;;;;;26.02;16.35;;;12.30;99.90;;;;;;5051454;28;20123;-82
2021/12/30 09:27:15;;;;;;;26.70;15.95;;;12.40;99.90;;;;;;5040622;28;20041;-82
2021/12/30 09:29:41;;;;;;;24.95;17.38;;;12.40;99.90;;;;;;5059156;28;20036;-82
2021/12/30 09:32:07;;;;;;;26.15;18.30;;;12.40;99.90;;;;;;5026918;28;20123;-82
2021/12/30 09:34:33;;;;;;;28.83;17.85;;;12.40;99.90;;;;;;5065540;28;20075;-83
2021/12/30 09:36:59;;;;;;;22.35;13.70;;;12.40;99.90;;;;;;5027932;28;20515;-83
2021/12/30 09:39:25;;;;;;;28.08;18.13;;;12.50;99.90;;;;;;5028233;28;20071;-83
2021/12/30 09:41:50;;;;;;;28.55;18.25;;;12.40;99.90;;;;;;5037881;28;20423;-82
2021/12/30 09:44:18;;;;;;;27.10;19.33;;;12.40;99.90;;;;;;5054091;28;20488;-83
2021/12/30 09:46:45;;;;;;;27.10;18.98;;;12.40;99.90;;;;;;5069229;28;20415;-83
2021/12/30 09:49:14;;;;;;;31.02;20.67;;;12.40;99.90;;;;;;5037239;28;20496;-83
2021/12/30 09:51:42;;;;;;;35.00;22.17;;;12.40;99.90;;;;;;5055806;28;20114;-83
2021/12/30 09:54:08;;;;;;;30.48;21.50;;;12.40;99.90;;;;;;5038767;28;20036;-83
2021/12/30 09:56:34;;;;;;;29.42;20.58;;;12.40;99.90;;;;;;5021246;28;20040;-84
2021/12/30 09:59:00;;;;;;;32.33;21.27;;;12.50;99.90;;;;;;5071716;28;20045;-83
2021/12/30 10:01:26;;;;;;;33.40;20.85;;;12.50;99.90;;;;;;5038187;28;20074;-82
2021/12/30 10:03:56;;;;;;;35.35;21.15;;;12.50;99.90;;;;;;5022092;28;20044;-83
2021/12/30 10:06:22;;;;;;;32.40;20.42;;;12.40;99.90;;;;;;5054838;28;20047;-83
2021/12/30 10:09:01;;;;;;;30.25;19.55;;;12.50;99.90;;;;;;5038412;28;20044;-83
2021/12/30 10:11:27;;;;;;;25.65;16.63;;;12.40;99.90;;;;;;5070715;28;20123;-82
2021/12/30 10:13:56;;;;;;;27.30;17.58;;;12.40;99.90;;;;;;5054967;28;20123;-82
2021/12/30 10:16:23;;;;;;;24.10;15.35;;;12.40;99.90;;;;;;5071543;28;20041;-82
2021/12/30 10:19:00;;;;;;;24.52;16.02;;;12.50;99.90;;;;;;5038352;28;20040;-82
2021/12/30 10:21:37;;;;;;;24.55;15.65;;;12.50;99.90;;;;;;5071350;28;20044;-82
2021/12/30 10:24:05;;;;;;;21.38;15.30;;;12.50;99.90;;;;;;5054976;28;20041;-82
2021/12/30 10:26:57;;;;;;;23.63;15.90;;;12.50;99.90;;;;;;5054122;28;20436;-83
2021/12/30 10:29:25;;;;;;;24.27;16.48;;;12.50;99.90;;;;;;5071625;28;20044;-82
2021/12/30 10:31:53;;;;;;;24.00;15.75;;;12.50;99.90;;;;;;5054624;28;20040;-82
2021/12/30 10:34:20;;;;;;;27.38;16.73;;;12.50;99.90;;;;;;5070060;28;20036;-82
2021/12/30 10:36:48;;;;;;;25.88;16.35;;;12.50;99.90;;;;;;5051298;28;20043;-83
2021/12/30 10:39:26;;;;;;;26.85;16.15;;;12.50;99.90;;;;;;5034808;28;20094;-83
2021/12/30 10:42:04;;;;;;;27.52;15.30;;;12.50;99.90;;;;;;5037292;28;20040;-83
2021/12/30 10:44:49;;;;;;;19.80;11.80;;;12.50;99.90;;;;;;5038607;28;20124;-83
2021/12/30 10:47:16;;;;;;;25.02;14.57;;;12.60;99.90;;;;;;5055029;28;20081;-82
2021/12/30 10:49:42;;;;;;;22.73;13.55;;;12.50;99.90;;;;;;5055108;28;20404;-82
2021/12/30 10:52:08;;;;;;;27.88;14.10;;;12.50;99.90;;;;;;5022116;28;20064;-82
2021/12/30 10:54:37;;;;;;;22.65;12.02;;;12.50;99.90;;;;;;5038490;28;20045;-84
2021/12/30 10:57:08;;;;;;;23.25;12.18;;;12.60;99.90;;;;;;5037654;28;20036;-82
2021/12/30 10:59:40;;;;;;;23.23;11.95;;;12.60;99.90;;;;;;5054012;28;20109;-83
2021/12/30 11:02:17;;;;;;;23.48;10.15;;;12.60;99.90;;;;;;5053882;28;20441;-82
2021/12/30 11:04:49;;;;;;;19.30;9.77;;;12.60;99.90;;;;;;5038305;28;20080;-82
2021/12/30 11:07:16;;;;;;;;;;;12.60;99.90;;;;;;5055166;28;20052;-83
2021/12/30 11:09:47;;;;;;;15.55;7.85;;;12.60;99.90;;;;;;5038367;28;19923;-83
2021/12/30 11:12:13;;;;;;;20.15;8.10;;;12.60;99.90;;;;;;5052657;28;20072;-83
2021/12/30 11:14:38;;;;;;;16.77;7.88;;;12.70;99.90;;;;;;5038076;28;20072;-82
2021/12/30 11:17:22;;;;;;;19.38;8.00;;;12.70;99.90;;;;;;5038053;28;20037;-83
2021/12/30 11:19:52;;;;;;;19.90;8.40;;;12.70;99.90;;;;;;5038022;28;20044;-83
2021/12/30 11:22:20;;;;;;;22.02;8.63;;;12.70;99.90;;;;;;5038061;28;20496;-83
2021/12/30 11:24:47;;;;;;;23.00;8.13;;;12.70;99.90;;;;;;5071298;28;20041;-83
2021/12/30 11:27:15;;;;;;;26.30;9.77;;;12.70;99.90;;;;;;5036821;28;20045;-82
2021/12/30 11:29:45;;;;;;;23.77;8.82;;;12.60;99.90;;;;;;5047242;28;20037;-82
2021/12/30 11:32:13;;;;;;;26.02;8.65;;;12.70;99.90;;;;;;5053818;28;20537;-82
2021/12/30 11:34:39;;;;;;;29.50;9.13;;;12.60;99.90;;;;;;5056699;28;20047;-82
2021/12/30 11:37:06;;;;;;;26.55;8.60;;;12.70;99.90;;;;;;5056294;28;20029;-83
2021/12/30 11:39:34;;;;;;;25.67;9.18;;;12.60;99.90;;;;;;5035629;28;20037;-82
2021/12/30 11:42:10;;;;;;;29.60;8.98;;;12.70;99.90;;;;;;5053398;28;20484;-82
2021/12/30 11:44:43;;;;;;;29.30;8.75;;;12.70;99.90;;;;;;5046862;28;20041;-82
2021/12/30 11:47:31;;;;;;;27.42;8.63;;;12.60;99.90;;;;;;5037437;28;20033;-82
2021/12/30 11:50:07;;;;;;;27.35;7.20;;;12.70;99.90;;;;;;5053748;28;20052;-83
2021/12/30 11:52:54;;;;;;;32.97;8.50;;;12.70;99.90;;;;;;5036669;28;20142;-82
2021/12/30 11:56:11;;;;;;;33.55;9.00;;;12.70;99.90;;;;;;5033302;28;20538;-82
2021/12/30 11:58:40;;;;;;;31.10;8.32;;;12.70;99.90;;;;;;5040080;28;20128;-82
2021/12/30 12:01:12;;;;;;;29.73;7.75;;;12.60;99.90;;;;;;5048835;28;20033;-82
2021/12/30 12:04:05;;;;;;;29.20;7.75;;;12.60;99.90;;;;;;5037016;28;20037;-82
2021/12/30 12:06:35;;;;;;;27.77;7.90;;;12.60;99.90;;;;;;5055806;28;20542;-82
2021/12/30 12:09:13;;;;;;;28.58;7.47;;;12.60;99.90;;;;;;5048607;28;20507;-83
2021/12/30 12:11:46;;;;;;;32.92;8.18;;;12.60;99.90;;;;;;5051957;28;20037;-82
2021/12/30 12:14:22;;;;;;;28.65;8.10;;;12.70;99.90;;;;;;5041897;28;20044;-83
2021/12/30 12:16:52;;;;;;;25.13;7.43;;;12.70;99.90;;;;;;5050643;28;20033;-82
2021/12/30 12:19:45;;;;;;;28.90;7.47;;;12.70;99.90;;;;;;5062772;28;20132;-82
2021/12/30 12:22:17;;;;;;;33.50;8.60;;;12.70;99.90;;;;;;5061262;28;20087;-82
2021/12/30 12:24:44;;;;;;;27.13;7.90;;;12.60;99.90;;;;;;5056121;28;20075;-82
2021/12/30 12:27:19;;;;;;;29.52;8.68;;;12.60;99.90;;;;;;5072250;28;20525;-82
2021/12/30 12:29:49;;;;;;;37.05;9.25;;;12.60;99.90;;;;;;5040551;28;20079;-83
2021/12/30 12:32:29;;;;;;;30.58;8.90;;;12.60;99.90;;;;;;5052912;28;20041;-83
2021/12/30 12:34:56;;;;;;;31.33;8.55;;;12.70;99.90;;;;;;5036414;28;20039;-83
2021/12/30 12:37:44;;;;;;;34.83;8.77;;;12.70;99.90;;;;;;5036373;28;20120;-82
2021/12/30 12:40:16;;;;;;;33.65;8.57;;;12.70;99.90;;;;;;5042077;28;20173;-82